createdAt,value
2023-04-02T00:00:17.537Z,90.80
2023-04-02T00:02:50.332Z,90.82
2023-04-02T00:05:31.164Z,90.72
2023-04-02T00:07:59.944Z,90.21
2023-04-02T00:10:30.781Z,90.38
2023-04-02T00:13:06.607Z,90.19
2023-04-02T00:15:34.920Z,90.11
2023-04-02T00:18:03.079Z,90.19
2023-04-02T00:20:32.451Z,89.66
2023-04-02T00:23:00.131Z,90.35
2023-04-02T00:25:29.508Z,89.88
2023-04-02T00:27:57.690Z,88.74
2023-04-02T00:30:25.198Z,90.01
2023-04-02T00:32:52.848Z,89.95
2023-04-02T00:35:23.837Z,89.74
2023-04-02T00:37:51.749Z,89.29
2023-04-02T00:40:22.628Z,89.13
2023-04-02T00:42:51.950Z,88.21
2023-04-02T00:45:24.111Z,88.66
2023-04-02T00:47:51.920Z,87.84
2023-04-02T00:50:24.764Z,87.52
2023-04-02T00:52:53.448Z,86.82
2023-04-02T00:55:23.859Z,86.82
2023-04-02T00:57:53.263Z,86.52
2023-04-02T01:00:24.744Z,86.34
2023-04-02T01:03:28.857Z,86.48
2023-04-02T01:06:01.538Z,85.80
2023-04-02T01:08:36.550Z,86.13
2023-04-02T01:11:10.830Z,86.76
2023-04-02T01:13:43.310Z,87.00
2023-04-02T01:16:15.623Z,87.00
2023-04-02T01:18:50.612Z,86.75
2023-04-02T01:21:53.825Z,87.12
2023-04-02T01:24:22.210Z,87.67
2023-04-02T01:26:54.618Z,86.93
2023-04-02T01:29:25.648Z,86.66
2023-04-02T01:31:55.036Z,86.43
2023-04-02T01:34:26.431Z,86.51
2023-04-02T01:37:08.294Z,86.73
2023-04-02T01:39:49.022Z,86.36
2023-04-02T01:42:22.111Z,87.59
2023-04-02T01:44:51.203Z,86.13
2023-04-02T01:47:20.960Z,86.61
2023-04-02T01:49:48.463Z,86.49
2023-04-02T01:52:18.786Z,86.93
2023-04-02T01:54:47.702Z,86.40
2023-04-02T01:57:15.427Z,86.59
2023-04-02T01:59:43.701Z,86.53
2023-04-02T02:02:14.252Z,86.50
2023-04-02T02:04:42.360Z,86.48
2023-04-02T02:07:15.879Z,86.14
2023-04-02T02:09:43.730Z,85.87
2023-04-02T02:12:13.187Z,84.74
2023-04-02T02:14:41.184Z,86.09
2023-04-02T02:17:16.168Z,85.06
2023-04-02T02:19:46.957Z,85.53
2023-04-02T02:22:26.282Z,85.61
2023-04-02T02:24:54.770Z,84.68
2023-04-02T02:27:43.391Z,85.27
2023-04-02T02:30:15.686Z,85.12
2023-04-02T02:32:48.948Z,85.67
2023-04-02T02:35:22.148Z,84.31
2023-04-02T02:37:54.151Z,85.12
2023-04-02T02:40:25.038Z,84.51
2023-04-02T02:42:55.588Z,83.63
2023-04-02T02:45:26.205Z,84.11
2023-04-02T02:47:54.391Z,84.40
2023-04-02T02:50:25.028Z,83.90
2023-04-02T02:52:54.656Z,83.53
2023-04-02T02:55:23.724Z,83.03
2023-04-02T02:57:55.198Z,83.64
2023-04-02T03:00:24.659Z,83.00
2023-04-02T03:02:53.503Z,84.41
2023-04-02T03:05:25.056Z,83.48
2023-04-02T03:07:54.998Z,82.52
2023-04-02T03:10:25.790Z,82.67
2023-04-02T03:12:57.392Z,82.94
2023-04-02T03:15:31.593Z,82.30
2023-04-02T03:18:02.438Z,81.39
2023-04-02T03:20:35.696Z,81.79
2023-04-02T03:23:05.866Z,81.40
2023-04-02T03:25:37.999Z,82.58
2023-04-02T03:28:07.649Z,81.58
2023-04-02T03:30:39.943Z,81.89
2023-04-02T03:33:12.173Z,80.70
2023-04-02T03:35:44.461Z,82.26
2023-04-02T03:38:16.318Z,81.08
2023-04-02T03:40:46.688Z,80.57
2023-04-02T03:43:19.947Z,79.78
2023-04-02T03:45:50.808Z,81.06
2023-04-02T03:48:22.081Z,81.17
2023-04-02T03:50:53.498Z,80.02
2023-04-02T03:53:24.677Z,80.19
2023-04-02T03:55:52.320Z,80.95
2023-04-02T03:58:22.966Z,82.01
2023-04-02T04:00:53.671Z,80.42
2023-04-02T04:03:24.512Z,82.68
2023-04-02T04:05:54.864Z,80.01
2023-04-02T04:08:25.138Z,82.61
2023-04-02T04:10:53.583Z,82.16
2023-04-02T04:13:25.482Z,80.81
2023-04-02T04:15:55.968Z,80.91
2023-04-02T04:18:34.710Z,80.59
2023-04-02T04:21:05.011Z,80.11
2023-04-02T04:23:33.878Z,80.32
2023-04-02T04:26:05.487Z,80.37
2023-04-02T04:28:38.311Z,79.79
2023-04-02T04:31:17.809Z,78.45
2023-04-02T04:33:50.526Z,78.81
2023-04-02T04:36:28.645Z,79.92
2023-04-02T04:38:59.459Z,78.95
2023-04-02T04:41:30.367Z,80.51
2023-04-02T04:44:02.304Z,78.59
2023-04-02T04:46:33.518Z,81.61
2023-04-02T04:49:03.819Z,78.57
2023-04-02T04:51:35.075Z,81.54
2023-04-02T04:54:02.585Z,81.07
2023-04-02T04:56:31.905Z,78.64
2023-04-02T04:59:02.258Z,79.74
2023-04-02T05:01:34.333Z,80.19
2023-04-02T05:04:05.481Z,79.25
2023-04-02T05:06:37.469Z,80.51
2023-04-02T05:09:09.118Z,80.07
2023-04-02T05:11:39.742Z,79.85
2023-04-02T05:14:08.437Z,79.77
2023-04-02T05:16:40.050Z,80.54
2023-04-02T05:19:09.873Z,79.55
2023-04-02T05:21:42.457Z,80.63
2023-04-02T05:24:30.494Z,80.89
2023-04-02T05:27:00.884Z,81.52
2023-04-02T05:29:30.633Z,80.18
2023-04-02T05:32:03.449Z,78.85
2023-04-02T05:34:33.238Z,80.15
2023-04-02T05:37:02.134Z,78.70
2023-04-02T05:39:31.397Z,79.31
2023-04-02T05:42:01.809Z,77.89
2023-04-02T05:44:30.825Z,78.77
2023-04-02T05:47:00.225Z,79.43
2023-04-02T05:49:33.410Z,79.30
2023-04-02T05:52:04.963Z,77.83
2023-04-02T05:54:35.200Z,78.09
2023-04-02T05:57:04.973Z,76.93
2023-04-02T05:59:36.059Z,78.76
2023-04-02T06:02:07.967Z,78.34
2023-04-02T06:04:37.716Z,77.51
2023-04-02T06:07:09.220Z,77.39
2023-04-02T06:09:40.554Z,77.20
2023-04-02T06:12:23.747Z,76.99
2023-04-02T06:14:54.412Z,75.86
2023-04-02T06:17:22.440Z,76.83
2023-04-02T06:19:50.623Z,77.09
2023-04-02T06:22:25.155Z,77.64
2023-04-02T06:24:58.407Z,77.53
2023-04-02T06:27:27.365Z,77.47
2023-04-02T06:29:57.161Z,78.68
2023-04-02T06:32:25.612Z,78.51
2023-04-02T06:34:53.321Z,77.47
2023-04-02T06:37:27.787Z,78.14
2023-04-02T06:39:55.714Z,78.49
2023-04-02T06:42:26.189Z,78.59
2023-04-02T06:44:53.788Z,78.30
2023-04-02T06:47:27.461Z,78.54
2023-04-02T06:49:59.545Z,79.13
2023-04-02T06:52:30.994Z,79.25
2023-04-02T06:54:59.114Z,77.81
2023-04-02T06:57:26.676Z,78.68
2023-04-02T06:59:54.219Z,77.72
2023-04-02T07:02:30.393Z,77.76
2023-04-02T07:05:08.998Z,77.97
2023-04-02T07:07:38.040Z,77.50
2023-04-02T07:10:06.947Z,78.91
2023-04-02T07:12:34.419Z,77.88
2023-04-02T07:15:01.891Z,76.63
2023-04-02T07:17:29.439Z,77.17
2023-04-02T07:19:56.953Z,77.60
2023-04-02T07:22:25.670Z,78.22
2023-04-02T07:24:54.476Z,78.52
2023-04-02T07:27:21.934Z,77.97
2023-04-02T07:29:49.473Z,77.58
2023-04-02T07:32:17.329Z,78.71
2023-04-02T07:34:44.811Z,77.47
2023-04-02T07:37:13.981Z,77.17
2023-04-02T07:39:41.492Z,77.57
2023-04-02T07:42:11.020Z,77.06
2023-04-02T07:44:38.530Z,77.08
2023-04-02T07:47:06.064Z,76.69
2023-04-02T07:49:33.588Z,76.52
2023-04-02T07:52:01.104Z,76.65
2023-04-02T07:54:28.667Z,76.13
2023-04-02T07:56:56.337Z,76.27
2023-04-02T07:59:25.445Z,76.85
2023-04-02T08:01:53.566Z,76.56
2023-04-02T08:04:22.400Z,76.14
2023-04-02T08:06:52.861Z,75.87
2023-04-02T08:09:20.369Z,77.16
2023-04-02T08:11:47.885Z,75.61
2023-04-02T08:14:15.546Z,75.80
2023-04-02T08:16:49.611Z,75.69
2023-04-02T08:19:17.160Z,74.86
2023-04-02T08:21:44.800Z,75.84
2023-04-02T08:24:12.311Z,76.48
2023-04-02T08:26:39.766Z,75.08
2023-04-02T08:29:07.294Z,74.41
2023-04-02T08:31:34.764Z,74.49
2023-04-02T08:34:03.637Z,74.72
2023-04-02T08:36:34.448Z,74.29
2023-04-02T08:39:02.561Z,74.59
2023-04-02T08:41:32.170Z,75.07
2023-04-02T08:44:11.465Z,74.16
2023-04-02T08:46:43.048Z,75.44
2023-04-02T08:49:15.570Z,77.68
2023-04-02T08:51:43.383Z,74.53
2023-04-02T08:54:17.420Z,77.25
2023-04-02T08:56:50.204Z,74.21
2023-04-02T08:59:25.475Z,73.34
2023-04-02T09:01:58.816Z,73.48
2023-04-02T09:04:28.220Z,77.11
2023-04-02T09:06:57.359Z,74.51
2023-04-02T09:09:25.624Z,74.79
2023-04-02T09:11:55.344Z,75.02
2023-04-02T09:14:29.697Z,74.36
2023-04-02T09:17:00.128Z,73.99
2023-04-02T09:19:35.352Z,74.13
2023-04-02T09:22:07.620Z,72.56
2023-04-02T09:24:36.616Z,72.59
2023-04-02T09:27:04.410Z,73.33
2023-04-02T09:29:54.134Z,72.59
2023-04-02T09:32:28.731Z,73.17
2023-04-02T09:35:26.185Z,72.58
2023-04-02T09:38:31.381Z,72.43
2023-04-02T09:41:00.714Z,72.80
2023-04-02T09:43:30.275Z,70.46
2023-04-02T09:46:00.501Z,76.24
2023-04-02T09:48:31.099Z,71.73
2023-04-02T09:51:14.726Z,70.90
2023-04-02T09:53:43.591Z,70.70
2023-04-02T09:56:14.506Z,72.15
2023-04-02T09:58:44.039Z,69.51
2023-04-02T10:01:28.686Z,69.73
2023-04-02T10:03:56.561Z,68.38
2023-04-02T10:06:26.427Z,68.37
2023-04-02T10:08:53.891Z,69.62
2023-04-02T10:11:30.904Z,69.53
2023-04-02T10:14:06.182Z,68.32
2023-04-02T10:16:36.091Z,69.79
2023-04-02T10:19:08.229Z,68.62
2023-04-02T10:21:38.744Z,72.91
2023-04-02T10:24:11.844Z,66.66
2023-04-02T10:26:47.421Z,70.81
2023-04-02T10:29:31.402Z,67.35
2023-04-02T10:32:02.216Z,67.53
2023-04-02T10:34:36.753Z,66.74
2023-04-02T10:37:16.219Z,67.80
2023-04-02T10:39:47.734Z,66.35
2023-04-02T10:42:19.627Z,65.88
2023-04-02T10:44:53.876Z,66.47
2023-04-02T10:47:28.652Z,66.35
2023-04-02T10:50:05.452Z,65.45
2023-04-02T10:52:39.394Z,65.69
2023-04-02T10:55:16.072Z,66.99
2023-04-02T10:57:44.686Z,64.60
2023-04-02T11:00:19.489Z,71.40
2023-04-02T11:02:51.451Z,64.61
2023-04-02T11:05:24.586Z,64.29
2023-04-02T11:08:01.868Z,63.12
2023-04-02T11:10:33.181Z,63.57
2023-04-02T11:13:04.689Z,61.12
2023-04-02T11:15:32.522Z,60.84
2023-04-02T11:18:01.011Z,62.97
2023-04-02T11:20:57.453Z,62.37
2023-04-02T11:23:30.298Z,63.88
2023-04-02T11:26:29.889Z,62.45
2023-04-02T11:29:07.593Z,62.64
2023-04-02T11:31:35.506Z,63.01
2023-04-02T11:34:03.145Z,63.83
2023-04-02T11:36:59.186Z,62.21
2023-04-02T11:39:55.239Z,59.86
2023-04-02T11:42:25.755Z,59.80
2023-04-02T11:44:53.326Z,59.85
2023-04-02T11:47:22.499Z,60.99
2023-04-02T11:50:06.150Z,61.98
2023-04-02T11:52:37.712Z,61.35
2023-04-02T11:55:28.243Z,65.79
2023-04-02T11:58:04.223Z,66.49
2023-04-02T12:00:49.381Z,61.91
2023-04-02T12:03:32.122Z,63.55
2023-04-02T12:06:04.156Z,61.02
2023-04-02T12:08:50.618Z,62.75
2023-04-02T12:11:34.104Z,59.45
2023-04-02T12:14:02.152Z,59.81
2023-04-02T12:16:34.463Z,57.98
2023-04-02T12:19:02.316Z,58.51
2023-04-02T12:21:31.111Z,58.92
2023-04-02T12:23:59.810Z,64.01
2023-04-02T12:26:31.963Z,55.36
2023-04-02T12:29:24.697Z,55.13
2023-04-02T12:31:53.068Z,60.99
2023-04-02T12:34:22.384Z,56.33
2023-04-02T12:36:55.623Z,57.18
2023-04-02T12:39:25.873Z,57.06
2023-04-02T12:41:55.308Z,57.08
2023-04-02T12:44:26.176Z,61.41
2023-04-02T12:46:54.063Z,57.63
2023-04-02T12:49:27.367Z,57.85
2023-04-02T12:51:57.832Z,56.82
2023-04-02T12:54:25.616Z,63.40
2023-04-02T12:56:53.375Z,66.93
2023-04-02T12:59:35.953Z,58.72
2023-04-02T13:02:15.557Z,53.90
2023-04-02T13:04:48.304Z,59.06
2023-04-02T13:07:17.566Z,55.23
2023-04-02T13:09:47.573Z,59.25
2023-04-02T13:12:25.832Z,57.56
2023-04-02T13:14:56.033Z,56.10
2023-04-02T13:17:40.609Z,55.64
2023-04-02T13:20:30.711Z,56.27
2023-04-02T13:22:59.124Z,57.46
2023-04-02T13:25:30.521Z,56.32
2023-04-02T13:27:58.566Z,56.62
2023-04-02T13:30:28.857Z,56.94
2023-04-02T13:32:56.744Z,61.79
2023-04-02T13:35:24.579Z,56.38
2023-04-02T13:37:52.119Z,56.66
2023-04-02T13:40:20.173Z,57.33
2023-04-02T13:42:49.506Z,59.29
2023-04-02T13:45:23.403Z,54.82
2023-04-02T13:47:52.395Z,61.19
2023-04-02T13:50:21.565Z,60.05
2023-04-02T13:52:50.548Z,59.57
2023-04-02T13:55:18.641Z,58.48
2023-04-02T13:57:46.189Z,55.42
2023-04-02T14:00:14.832Z,55.52
2023-04-02T14:02:44.969Z,58.65
2023-04-02T14:05:22.465Z,61.71
2023-04-02T14:07:59.110Z,56.92
2023-04-02T14:10:33.083Z,56.80
2023-04-02T14:13:09.711Z,57.30
2023-04-02T14:15:49.773Z,56.34
2023-04-02T14:18:29.347Z,57.40
2023-04-02T14:21:07.383Z,58.52
2023-04-02T14:23:43.521Z,55.47
2023-04-02T14:26:16.535Z,58.94
2023-04-02T14:28:49.357Z,55.04
2023-04-02T14:31:20.614Z,55.48
2023-04-02T14:33:54.056Z,55.29
2023-04-02T14:36:28.693Z,54.94
2023-04-02T14:38:59.103Z,55.43
2023-04-02T14:41:33.612Z,55.90
2023-04-02T14:44:03.053Z,55.18
2023-04-02T14:46:33.585Z,55.91
2023-04-02T14:49:07.204Z,56.70
2023-04-02T14:51:40.638Z,60.78
2023-04-02T14:54:10.681Z,54.77
2023-04-02T14:56:40.744Z,56.21
2023-04-02T14:59:22.634Z,55.13
2023-04-02T15:01:51.682Z,55.30
2023-04-02T15:04:21.955Z,54.24
2023-04-02T15:06:52.414Z,56.31
2023-04-02T15:09:22.116Z,56.16
2023-04-02T15:11:51.945Z,56.00
2023-04-02T15:14:21.962Z,55.97
2023-04-02T15:16:49.417Z,57.24
2023-04-02T15:19:18.705Z,57.47
2023-04-02T15:21:59.071Z,57.52
2023-04-02T15:24:34.960Z,56.50
2023-04-02T15:27:14.673Z,56.61
2023-04-02T15:29:53.644Z,56.14
2023-04-02T15:32:28.261Z,56.65
2023-04-02T15:35:00.439Z,56.55
2023-04-02T15:37:33.912Z,56.57
2023-04-02T15:40:17.491Z,55.38
2023-04-02T15:42:48.238Z,55.70
2023-04-02T15:45:23.802Z,56.04
2023-04-02T15:48:05.164Z,55.78
2023-04-02T15:50:44.118Z,58.48
2023-04-02T15:53:24.463Z,57.37
2023-04-02T15:55:57.882Z,58.42
2023-04-02T15:58:28.399Z,60.07
2023-04-02T16:01:08.390Z,57.74
2023-04-02T16:03:54.882Z,59.35
2023-04-02T16:06:28.867Z,58.80
2023-04-02T16:09:18.051Z,59.48
2023-04-02T16:11:45.723Z,59.13
2023-04-02T16:14:22.796Z,58.39
2023-04-02T16:16:52.137Z,58.19
2023-04-02T16:19:26.565Z,57.59
2023-04-02T16:21:59.982Z,58.36
2023-04-02T16:24:29.149Z,58.63
2023-04-02T16:27:00.125Z,59.15
2023-04-02T16:29:54.585Z,59.18
2023-04-02T16:32:37.818Z,59.23
2023-04-02T16:35:40.766Z,58.18
2023-04-02T16:38:10.054Z,59.29
2023-04-02T16:40:54.318Z,58.99
2023-04-02T16:43:32.635Z,59.55
2023-04-02T16:46:07.103Z,59.56
2023-04-02T16:48:39.885Z,60.47
2023-04-02T16:51:15.596Z,61.15
2023-04-02T16:54:01.083Z,60.22
2023-04-02T16:56:39.848Z,62.34
2023-04-02T16:59:15.972Z,59.08
2023-04-02T17:01:47.809Z,59.88
2023-04-02T17:04:46.620Z,59.36
2023-04-02T17:07:21.864Z,58.28
2023-04-02T17:09:51.448Z,58.82
2023-04-02T17:12:23.268Z,59.02
2023-04-02T17:14:53.117Z,59.14
2023-04-02T17:17:21.784Z,59.62
2023-04-02T17:19:51.476Z,57.85
2023-04-02T17:22:21.762Z,59.31
2023-04-02T17:24:51.707Z,58.11
2023-04-02T17:27:24.717Z,59.20
2023-04-02T17:29:53.558Z,58.54
2023-04-02T17:32:24.063Z,58.59
2023-04-02T17:34:51.596Z,57.59
2023-04-02T17:37:26.186Z,57.30
2023-04-02T17:40:00.517Z,57.48
2023-04-02T17:42:38.531Z,58.21
2023-04-02T17:45:13.147Z,58.61
2023-04-02T17:47:48.340Z,60.94
2023-04-02T17:50:54.526Z,58.75
2023-04-02T17:53:36.791Z,59.16
2023-04-02T17:56:11.133Z,58.69
2023-04-02T17:58:59.856Z,59.06
2023-04-02T18:01:31.383Z,58.32
2023-04-02T18:04:07.392Z,58.58
2023-04-02T18:06:39.340Z,58.23
2023-04-02T18:09:19.175Z,58.29
2023-04-02T18:11:53.187Z,58.54
2023-04-02T18:14:32.769Z,59.42
2023-04-02T18:17:05.827Z,58.92
2023-04-02T18:19:38.501Z,58.85
2023-04-02T18:22:12.756Z,58.83
2023-04-02T18:24:52.050Z,59.46
2023-04-02T18:27:31.843Z,59.00
2023-04-02T18:30:09.243Z,59.44
2023-04-02T18:32:47.914Z,59.78
2023-04-02T18:35:21.504Z,59.69
2023-04-02T18:37:59.072Z,59.91
2023-04-02T18:40:34.972Z,60.59
2023-04-02T18:43:07.441Z,60.75
2023-04-02T18:45:43.362Z,60.60
2023-04-02T18:48:20.015Z,60.82
2023-04-02T18:50:47.705Z,61.25
2023-04-02T18:53:16.649Z,61.89
2023-04-02T18:55:47.424Z,62.61
2023-04-02T18:58:20.379Z,61.89
2023-04-02T19:00:49.192Z,62.19
2023-04-02T19:03:21.024Z,64.62
2023-04-02T19:05:50.512Z,62.50
2023-04-02T19:08:20.831Z,63.14
2023-04-02T19:10:50.682Z,63.78
2023-04-02T19:13:19.853Z,63.41
2023-04-02T19:15:59.418Z,64.35
2023-04-02T19:18:35.516Z,64.25
2023-04-02T19:21:14.947Z,64.09
2023-04-02T19:23:59.291Z,64.70
2023-04-02T19:26:31.872Z,64.99
2023-04-02T19:29:03.776Z,65.08
2023-04-02T19:31:42.675Z,65.12
2023-04-02T19:34:16.772Z,65.28
2023-04-02T19:36:47.221Z,65.80
2023-04-02T19:39:35.532Z,66.28
2023-04-02T19:42:10.543Z,66.21
2023-04-02T19:44:41.625Z,66.07
2023-04-02T19:47:11.162Z,66.46
2023-04-02T19:49:38.703Z,66.63
2023-04-02T19:52:06.317Z,66.78
2023-04-02T19:54:34.914Z,66.95
2023-04-02T19:57:04.780Z,66.98
2023-04-02T19:59:33.047Z,68.32
2023-04-02T20:02:04.279Z,67.64
2023-04-02T20:04:33.151Z,68.12
2023-04-02T20:07:00.681Z,68.82
2023-04-02T20:09:29.079Z,68.93
2023-04-02T20:11:56.656Z,68.58
2023-04-02T20:14:24.137Z,68.59
2023-04-02T20:16:51.862Z,68.51
2023-04-02T20:19:19.851Z,69.09
2023-04-02T20:21:48.649Z,69.07
2023-04-02T20:24:16.239Z,68.94
2023-04-02T20:26:43.726Z,69.41
2023-04-02T20:29:11.346Z,69.14
2023-04-02T20:31:39.009Z,69.78
2023-04-02T20:34:08.516Z,70.58
2023-04-02T20:36:36.383Z,70.26
2023-04-02T20:39:07.817Z,69.86
2023-04-02T20:41:35.393Z,70.48
2023-04-02T20:44:03.079Z,70.56
2023-04-02T20:46:30.593Z,70.81
2023-04-02T20:48:58.096Z,71.15
2023-04-02T20:51:25.806Z,71.19
2023-04-02T20:53:53.700Z,70.72
2023-04-02T20:56:23.365Z,70.97
2023-04-02T20:58:51.108Z,70.71
2023-04-02T21:01:20.833Z,70.79
2023-04-02T21:03:49.109Z,71.20
2023-04-02T21:06:18.884Z,70.82
2023-04-02T21:08:46.692Z,71.54
2023-04-02T21:11:14.458Z,71.22
2023-04-02T21:13:44.181Z,71.69
2023-04-02T21:16:14.432Z,71.52
2023-04-02T21:18:41.996Z,71.29
2023-04-02T21:21:09.626Z,71.67
2023-04-02T21:23:37.095Z,71.69
2023-04-02T21:26:06.916Z,71.39
2023-04-02T21:28:34.800Z,72.47
2023-04-02T21:31:05.489Z,72.22
2023-04-02T21:33:36.886Z,72.00
2023-04-02T21:36:08.586Z,71.86
2023-04-02T21:38:38.172Z,72.94
2023-04-02T21:41:16.196Z,73.23
2023-04-02T21:43:43.947Z,72.73
2023-04-02T21:46:13.090Z,73.30
2023-04-02T21:48:41.777Z,72.96
2023-04-02T21:51:10.920Z,73.40
2023-04-02T21:53:38.511Z,73.65
2023-04-02T21:56:07.734Z,73.43
2023-04-02T21:58:35.484Z,73.75
2023-04-02T22:01:03.465Z,73.91
2023-04-02T22:03:36.667Z,74.50
2023-04-02T22:06:06.008Z,74.57
2023-04-02T22:08:33.989Z,74.46
2023-04-02T22:11:09.591Z,74.82
2023-04-02T22:13:37.500Z,74.44
2023-04-02T22:16:08.542Z,75.05
2023-04-02T22:18:38.531Z,74.89
2023-04-02T22:21:07.769Z,74.57
2023-04-02T22:23:35.925Z,74.57
2023-04-02T22:26:03.985Z,75.27
2023-04-02T22:28:31.678Z,74.89
2023-04-02T22:31:05.188Z,75.81
2023-04-02T22:33:33.243Z,75.83
2023-04-02T22:36:02.131Z,76.29
2023-04-02T22:38:29.725Z,76.51
2023-04-02T22:41:05.136Z,76.42
2023-04-02T22:43:32.628Z,76.81
2023-04-02T22:46:00.176Z,76.59
2023-04-02T22:48:28.079Z,76.65
2023-04-02T22:50:55.596Z,76.93
2023-04-02T22:53:24.543Z,77.07
2023-04-02T22:55:52.996Z,77.06
2023-04-02T22:58:20.737Z,77.24
2023-04-02T23:00:48.960Z,77.37
2023-04-02T23:03:16.816Z,77.49
2023-04-02T23:05:46.944Z,77.91
2023-04-02T23:08:14.430Z,78.05
2023-04-02T23:10:43.202Z,77.89
2023-04-02T23:13:10.750Z,78.18
2023-04-02T23:15:38.260Z,78.41
2023-04-02T23:18:06.133Z,78.53
2023-04-02T23:20:33.763Z,78.72
2023-04-02T23:23:01.248Z,78.66
2023-04-02T23:25:28.987Z,78.92
2023-04-02T23:27:57.796Z,79.43
2023-04-02T23:30:25.431Z,79.77
2023-04-02T23:32:52.894Z,79.70
2023-04-02T23:35:20.559Z,79.79
2023-04-02T23:37:49.389Z,79.78
2023-04-02T23:40:16.993Z,80.26
2023-04-02T23:42:44.442Z,80.31
2023-04-02T23:45:13.539Z,80.51
2023-04-02T23:47:41.149Z,80.59
2023-04-02T23:50:09.402Z,80.81
2023-04-02T23:52:36.869Z,80.90
2023-04-02T23:55:04.593Z,81.19
2023-04-02T23:57:32.137Z,81.03
2023-04-02T23:59:59.720Z,81.05
